createdAt,value
2023-11-15T00:00:08.655Z,54.61
2023-11-15T00:05:10.535Z,53.62
2023-11-15T00:10:12.448Z,53.81
2023-11-15T00:15:15.503Z,53.65
2023-11-15T00:20:17.662Z,54.07
2023-11-15T00:25:19.408Z,53.41
2023-11-15T00:30:21.092Z,52.83
2023-11-15T00:35:23.696Z,54.41
2023-11-15T00:40:25.499Z,53.39
2023-11-15T00:45:27.216Z,55.14
2023-11-15T00:50:28.940Z,53.97
2023-11-15T00:55:30.731Z,54.03
2023-11-15T01:00:40.820Z,55.19
2023-11-15T01:05:42.571Z,54.65
2023-11-15T01:10:44.506Z,55.50
2023-11-15T01:15:46.424Z,55.65
2023-11-15T01:20:48.213Z,56.98
2023-11-15T01:25:49.962Z,56.67
2023-11-15T01:30:51.650Z,55.96
2023-11-15T01:35:53.934Z,56.70
2023-11-15T01:40:55.932Z,56.65
2023-11-15T01:45:57.904Z,55.79
2023-11-15T01:51:01.604Z,55.71
2023-11-15T01:56:04.893Z,56.18
2023-11-15T02:01:09.743Z,55.94
2023-11-15T02:06:12.189Z,55.26
2023-11-15T02:11:14.046Z,52.85
2023-11-15T02:16:15.809Z,53.75
2023-11-15T02:21:18.570Z,53.20
2023-11-15T02:26:21.253Z,52.29
2023-11-15T02:31:23.039Z,54.86
2023-11-15T02:36:25.087Z,55.21
2023-11-15T02:41:27.467Z,55.18
2023-11-15T02:46:30.182Z,55.63
2023-11-15T02:51:32.000Z,55.66
2023-11-15T02:56:33.830Z,56.21
2023-11-15T03:01:35.743Z,55.87
2023-11-15T03:06:37.418Z,55.31
2023-11-15T03:11:39.263Z,54.85
2023-11-15T03:16:42.091Z,55.25
2023-11-15T03:21:43.898Z,54.84
2023-11-15T03:26:45.732Z,55.36
2023-11-15T03:31:47.570Z,54.36
2023-11-15T03:36:49.360Z,55.43
2023-11-15T03:41:51.350Z,56.54
2023-11-15T03:46:53.160Z,57.35
2023-11-15T03:51:55.024Z,55.99
2023-11-15T03:56:56.749Z,57.23
2023-11-15T04:01:58.640Z,56.54
2023-11-15T04:07:01.080Z,56.50
2023-11-15T04:12:03.122Z,56.87
2023-11-15T04:17:05.605Z,55.82
2023-11-15T04:22:13.541Z,58.94
2023-11-15T04:27:16.425Z,58.07
2023-11-15T04:32:18.089Z,58.52
2023-11-15T04:37:20.809Z,56.96
2023-11-15T04:42:22.630Z,58.34
2023-11-15T04:47:25.535Z,58.28
2023-11-15T04:52:27.879Z,57.66
2023-11-15T04:57:30.641Z,57.44
2023-11-15T05:02:32.466Z,59.53
2023-11-15T05:07:35.142Z,58.37
2023-11-15T05:12:37.407Z,57.31
2023-11-15T05:17:39.205Z,57.57
2023-11-15T05:22:41.049Z,60.08
2023-11-15T05:27:42.866Z,59.75
2023-11-15T05:32:45.165Z,58.10
2023-11-15T05:37:47.099Z,59.15
2023-11-15T05:42:48.745Z,58.99
2023-11-15T05:47:50.491Z,58.28
2023-11-15T05:52:53.766Z,58.29
2023-11-15T05:57:55.766Z,58.56
2023-11-15T06:02:57.868Z,56.68
2023-11-15T06:08:02.211Z,56.67
2023-11-15T06:13:07.430Z,57.10
2023-11-15T06:18:12.128Z,58.49
2023-11-15T06:23:14.267Z,58.22
2023-11-15T06:28:15.965Z,59.87
2023-11-15T06:33:17.825Z,58.64
2023-11-15T06:38:20.026Z,58.57
2023-11-15T06:43:22.172Z,60.04
2023-11-15T06:48:25.450Z,58.42
2023-11-15T06:53:27.243Z,58.70
2023-11-15T06:58:28.928Z,59.81
2023-11-15T07:03:30.730Z,59.60
2023-11-15T07:08:33.292Z,59.47
2023-11-15T07:13:36.097Z,58.91
2023-11-15T07:18:38.722Z,59.38
2023-11-15T07:23:43.344Z,59.98
2023-11-15T07:28:48.362Z,60.10
2023-11-15T07:33:52.389Z,58.35
2023-11-15T07:38:54.155Z,58.13
2023-11-15T07:43:55.783Z,57.92
2023-11-15T07:48:59.878Z,59.23
2023-11-15T07:54:02.477Z,58.15
2023-11-15T07:59:05.404Z,58.71
2023-11-15T08:04:07.673Z,59.02
2023-11-15T08:09:10.956Z,56.81
2023-11-15T08:14:12.540Z,56.40
2023-11-15T08:19:14.641Z,56.56
2023-11-15T08:24:22.859Z,57.78
2023-11-15T08:29:24.803Z,57.34
2023-11-15T08:34:28.191Z,56.87
2023-11-15T08:39:29.824Z,57.19
2023-11-15T08:44:31.573Z,56.87
2023-11-15T08:49:33.305Z,55.27
2023-11-15T08:54:35.555Z,57.58
2023-11-15T08:59:37.917Z,56.71
2023-11-15T09:04:40.138Z,57.26
2023-11-15T09:09:43.050Z,55.10
2023-11-15T09:14:45.008Z,55.08
2023-11-15T09:19:50.238Z,56.47
2023-11-15T09:25:03.569Z,54.58
2023-11-15T09:30:10.358Z,55.69
2023-11-15T09:35:13.597Z,55.88
2023-11-15T09:40:15.441Z,55.97
2023-11-15T09:45:21.370Z,56.47
2023-11-15T09:50:28.029Z,54.05
2023-11-15T09:55:30.060Z,55.32
2023-11-15T10:00:31.743Z,55.22
2023-11-15T10:05:33.788Z,56.67
2023-11-15T10:10:35.990Z,55.58
2023-11-15T10:15:37.890Z,55.04
2023-11-15T10:20:42.297Z,55.44
2023-11-15T10:25:53.125Z,55.30
2023-11-15T10:31:05.893Z,55.33
2023-11-15T10:36:18.092Z,54.65
2023-11-15T10:41:21.874Z,53.67
2023-11-15T10:46:32.121Z,53.57
2023-11-15T10:51:45.572Z,53.45
2023-11-15T10:56:51.007Z,52.71
2023-11-15T11:06:28.735Z,58.02
2023-11-15T11:12:13.874Z,58.24
2023-11-15T11:18:03.638Z,58.77
2023-11-15T11:23:12.436Z,59.13
2023-11-15T11:28:15.310Z,58.24
2023-11-15T11:33:20.606Z,57.54
2023-11-15T11:38:39.440Z,59.03
2023-11-15T11:43:43.215Z,58.86
2023-11-15T11:48:45.516Z,59.97
2023-11-15T11:53:49.473Z,59.69
2023-11-15T11:58:51.329Z,60.03
2023-11-15T12:04:00.680Z,59.33
2023-11-15T12:09:02.449Z,60.62
2023-11-15T12:14:05.460Z,60.47
2023-11-15T12:19:11.041Z,59.93
2023-11-15T12:24:14.487Z,58.61
2023-11-15T12:29:36.931Z,60.77
2023-11-15T12:34:39.523Z,58.68
2023-11-15T12:39:41.447Z,57.99
2023-11-15T12:44:46.586Z,58.01
2023-11-15T12:49:48.467Z,57.70
2023-11-15T12:54:57.048Z,57.51
2023-11-15T12:59:58.768Z,55.99
2023-11-15T13:05:04.794Z,57.08
2023-11-15T13:10:07.021Z,55.71
2023-11-15T13:15:14.816Z,55.37
2023-11-15T13:20:16.813Z,55.14
2023-11-15T13:25:18.668Z,53.82
2023-11-15T13:30:21.365Z,54.11
2023-11-15T13:35:23.106Z,54.94
2023-11-15T13:40:25.799Z,52.86
2023-11-15T13:45:28.474Z,52.72
2023-11-15T13:50:30.412Z,52.79
2023-11-15T13:55:32.051Z,50.94
2023-11-15T14:00:38.257Z,51.55
2023-11-15T14:05:44.629Z,51.74
2023-11-15T14:10:46.430Z,53.89
2023-11-15T14:15:48.175Z,50.70
2023-11-15T14:20:53.369Z,52.04
2023-11-15T14:25:55.211Z,49.95
2023-11-15T14:30:56.969Z,50.64
2023-11-15T14:35:58.713Z,49.73
2023-11-15T14:41:02.241Z,50.81
2023-11-15T14:46:04.326Z,50.21
2023-11-15T14:51:06.946Z,50.53
2023-11-15T14:56:09.021Z,49.77
2023-11-15T15:01:10.798Z,49.49
2023-11-15T15:06:13.872Z,51.46
2023-11-15T15:11:15.607Z,50.29
2023-11-15T15:16:22.210Z,49.76
2023-11-15T15:21:24.041Z,49.68
2023-11-15T15:26:25.882Z,49.93
2023-11-15T15:31:27.636Z,50.65
2023-11-15T15:36:29.382Z,49.83
2023-11-15T15:41:31.104Z,50.55
2023-11-15T15:46:34.292Z,49.24
2023-11-15T15:51:36.119Z,49.39
2023-11-15T15:56:37.858Z,49.73
2023-11-15T16:01:39.578Z,50.56
2023-11-15T16:06:41.375Z,49.32
2023-11-15T16:11:43.069Z,49.14
2023-11-15T16:16:48.392Z,51.16
2023-11-15T16:21:50.119Z,49.74
2023-11-15T16:26:51.776Z,50.25
2023-11-15T16:31:53.464Z,49.92
2023-11-15T16:36:55.171Z,50.59
2023-11-15T16:41:56.959Z,50.49
2023-11-15T16:46:58.858Z,50.90
2023-11-15T16:52:01.703Z,50.32
2023-11-15T16:57:06.217Z,51.10
2023-11-15T17:02:08.325Z,50.37
2023-11-15T17:07:10.008Z,50.93
2023-11-15T17:12:13.102Z,51.95
2023-11-15T17:17:17.336Z,51.52
2023-11-15T17:22:20.885Z,51.16
2023-11-15T17:27:25.306Z,50.55
2023-11-15T17:32:29.644Z,50.93
2023-11-15T17:37:32.128Z,50.49
2023-11-15T17:42:34.324Z,49.67
2023-11-15T17:47:36.060Z,48.69
2023-11-15T17:52:41.787Z,50.69
2023-11-15T17:57:45.081Z,52.01
2023-11-15T18:02:47.656Z,51.87
2023-11-15T18:07:49.695Z,51.79
2023-11-15T18:12:51.423Z,51.89
2023-11-15T18:17:54.855Z,51.47
2023-11-15T18:22:58.110Z,51.01
2023-11-15T18:27:59.841Z,51.77
2023-11-15T18:33:01.942Z,51.55
2023-11-15T18:38:05.108Z,50.27
2023-11-15T18:43:07.028Z,51.14
2023-11-15T18:48:10.763Z,52.11
2023-11-15T18:53:14.402Z,50.79
2023-11-15T18:58:16.116Z,52.09
2023-11-15T19:03:17.901Z,51.48
2023-11-15T19:08:19.888Z,50.55
2023-11-15T19:13:22.733Z,50.67
2023-11-15T19:18:25.830Z,50.86
2023-11-15T19:23:27.609Z,51.63
2023-11-15T19:28:29.375Z,51.00
2023-11-15T19:33:31.913Z,52.56
2023-11-15T19:38:34.492Z,51.15
2023-11-15T19:43:37.943Z,52.00
2023-11-15T19:48:39.711Z,51.15
2023-11-15T19:53:41.555Z,51.04
2023-11-15T19:58:44.807Z,52.41
2023-11-15T20:03:48.994Z,51.49
2023-11-15T20:08:50.786Z,52.01
2023-11-15T20:13:52.543Z,51.01
2023-11-15T20:18:55.006Z,51.48
2023-11-15T20:23:56.914Z,52.03
2023-11-15T20:28:58.788Z,52.36
2023-11-15T20:34:06.400Z,53.65
2023-11-15T20:39:21.945Z,53.41
2023-11-15T20:44:26.735Z,53.27
2023-11-15T20:49:28.480Z,53.67
2023-11-15T20:54:33.632Z,54.06
2023-11-15T20:59:37.424Z,52.62
2023-11-15T21:04:40.685Z,52.03
2023-11-15T21:09:43.941Z,54.44
2023-11-15T21:14:45.714Z,54.18
2023-11-15T21:19:47.515Z,54.58
2023-11-15T21:24:49.253Z,54.08
2023-11-15T21:29:50.899Z,54.49
2023-11-15T21:34:52.569Z,57.13
2023-11-15T21:39:54.254Z,57.50
2023-11-15T21:44:56.074Z,57.22
2023-11-15T21:49:57.784Z,57.70
2023-11-15T21:54:59.555Z,57.41
2023-11-15T22:00:02.322Z,55.08
2023-11-15T22:05:04.436Z,58.06
2023-11-15T22:10:13.996Z,58.27
2023-11-15T22:15:20.594Z,56.64
2023-11-15T22:20:22.952Z,57.90
2023-11-15T22:25:24.706Z,56.72
2023-11-15T22:30:26.544Z,57.31
2023-11-15T22:35:28.220Z,57.83
2023-11-15T22:40:29.858Z,58.33
2023-11-15T22:45:32.055Z,60.50
2023-11-15T22:50:36.590Z,58.42
2023-11-15T22:55:38.244Z,57.70
2023-11-15T23:00:40.124Z,57.08
2023-11-15T23:05:42.478Z,57.80
2023-11-15T23:10:44.353Z,56.80
2023-11-15T23:15:49.346Z,58.40
2023-11-15T23:20:52.557Z,59.15
2023-11-15T23:25:54.309Z,55.24
2023-11-15T23:30:56.962Z,54.58
2023-11-15T23:35:58.911Z,54.71
2023-11-15T23:41:00.570Z,56.24
2023-11-15T23:46:03.431Z,54.64
2023-11-15T23:51:06.133Z,55.68
2023-11-15T23:56:08.136Z,57.26
